sensor_id;sensor_type;location;lat;lon;timestamp;noise_LAeq;noise_LA_min;noise_LA_max;noise_LA01;noise_LA95
18377;Laerm;9315;52.624;13.544;2023-03-30T00:01:12;55.05;38.78;70.93;;
18377;Laerm;9315;52.624;13.544;2023-03-30T00:03:43;63.03;36.03;80.30;;
18377;Laerm;9315;52.624;13.544;2023-03-30T00:06:12;44.88;36.74;57.60;;
18377;Laerm;9315;52.624;13.544;2023-03-30T00:08:53;57.31;37.86;73.99;;
18377;Laerm;9315;52.624;13.544;2023-03-30T00:11:25;61.15;38.67;83.67;;
18377;Laerm;9315;52.624;13.544;2023-03-30T00:13:53;64.38;41.26;79.03;;
18377;Laerm;9315;52.624;13.544;2023-03-30T00:16:21;47.78;39.08;65.72;;
18377;Laerm;9315;52.624;13.544;2023-03-30T00:18:49;44.08;39.84;51.02;;
18377;Laerm;9315;52.624;13.544;2023-03-30T00:21:17;45.51;40.55;53.30;;
18377;Laerm;9315;52.624;13.544;2023-03-30T00:23:48;56.85;40.71;75.53;;
18377;Laerm;9315;52.624;13.544;2023-03-30T00:26:18;59.11;39.05;80.39;;
18377;Laerm;9315;52.624;13.544;2023-03-30T00:28:45;59.43;39.69;75.95;;
18377;Laerm;9315;52.624;13.544;2023-03-30T00:31:13;45.77;41.37;52.83;;
18377;Laerm;9315;52.624;13.544;2023-03-30T00:33:40;58.79;40.67;78.75;;
18377;Laerm;9315;52.624;13.544;2023-03-30T00:36:12;58.86;40.21;79.03;;
18377;Laerm;9315;52.624;13.544;2023-03-30T00:38:40;57.03;40.65;71.87;;
18377;Laerm;9315;52.624;13.544;2023-03-30T00:41:08;41.86;37.44;49.31;;
18377;Laerm;9315;52.624;13.544;2023-03-30T00:44:08;52.82;38.32;70.55;;
18377;Laerm;9315;52.624;13.544;2023-03-30T00:46:55;54.79;38.24;71.67;;
18377;Laerm;9315;52.624;13.544;2023-03-30T00:49:24;61.19;39.12;74.79;;
18377;Laerm;9315;52.624;13.544;2023-03-30T00:51:51;42.64;37.27;48.37;;
18377;Laerm;9315;52.624;13.544;2023-03-30T00:54:19;58.18;40.10;74.94;;
18377;Laerm;9315;52.624;13.544;2023-03-30T00:56:47;45.92;41.19;53.38;;
18377;Laerm;9315;52.624;13.544;2023-03-30T00:59:14;56.97;36.84;75.69;;
18377;Laerm;9315;52.624;13.544;2023-03-30T01:01:41;42.94;38.13;50.59;;
18377;Laerm;9315;52.624;13.544;2023-03-30T01:04:16;42.73;38.44;49.20;;
18377;Laerm;9315;52.624;13.544;2023-03-30T01:06:43;64.51;39.97;83.25;;
18377;Laerm;9315;52.624;13.544;2023-03-30T01:09:14;45.21;39.64;59.47;;
18377;Laerm;9315;52.624;13.544;2023-03-30T01:11:42;58.72;40.47;75.76;;
18377;Laerm;9315;52.624;13.544;2023-03-30T01:14:12;59.33;39.77;76.21;;
18377;Laerm;9315;52.624;13.544;2023-03-30T01:16:43;45.74;40.61;52.43;;
18377;Laerm;9315;52.624;13.544;2023-03-30T01:22:40;62.64;41.46;81.69;;
18377;Laerm;9315;52.624;13.544;2023-03-30T01:31:33;67.33;41.65;85.12;;
18377;Laerm;9315;52.624;13.544;2023-03-30T01:37:38;65.16;42.58;83.22;;
18377;Laerm;9315;52.624;13.544;2023-03-30T01:40:39;57.68;38.80;75.74;;
18377;Laerm;9315;52.624;13.544;2023-03-30T01:43:24;66.44;43.05;79.83;;
18377;Laerm;9315;52.624;13.544;2023-03-30T01:46:12;67.71;43.32;83.62;;
18377;Laerm;9315;52.624;13.544;2023-03-30T01:48:58;69.26;42.11;85.29;;
18377;Laerm;9315;52.624;13.544;2023-03-30T01:51:41;65.45;41.38;83.00;;
18377;Laerm;9315;52.624;13.544;2023-03-30T01:54:21;62.62;41.86;80.38;;
18377;Laerm;9315;52.624;13.544;2023-03-30T01:56:57;59.22;39.74;75.12;;
18377;Laerm;9315;52.624;13.544;2023-03-30T02:02:08;43.91;39.28;47.87;;
18377;Laerm;9315;52.624;13.544;2023-03-30T02:04:39;63.57;40.60;79.36;;
18377;Laerm;9315;52.624;13.544;2023-03-30T02:07:17;65.23;41.14;81.89;;
18377;Laerm;9315;52.624;13.544;2023-03-30T02:09:48;65.08;43.12;79.77;;
18377;Laerm;9315;52.624;13.544;2023-03-30T02:12:18;60.65;41.48;74.58;;
18377;Laerm;9315;52.624;13.544;2023-03-30T02:14:47;68.35;45.21;81.48;;
18377;Laerm;9315;52.624;13.544;2023-03-30T02:17:22;63.00;40.64;78.96;;
18377;Laerm;9315;52.624;13.544;2023-03-30T02:19:50;66.92;43.92;78.24;;
18377;Laerm;9315;52.624;13.544;2023-03-30T02:22:19;67.48;44.98;80.37;;
18377;Laerm;9315;52.624;13.544;2023-03-30T02:24:50;61.94;41.49;77.25;;
18377;Laerm;9315;52.624;13.544;2023-03-30T02:27:21;61.56;41.16;78.09;;
18377;Laerm;9315;52.624;13.544;2023-03-30T02:29:49;64.85;42.47;78.32;;
18377;Laerm;9315;52.624;13.544;2023-03-30T02:32:32;65.95;40.96;80.36;;
18377;Laerm;9315;52.624;13.544;2023-03-30T02:41:29;68.23;43.44;80.57;;
18377;Laerm;9315;52.624;13.544;2023-03-30T02:44:42;70.96;49.67;85.27;;
18377;Laerm;9315;52.624;13.544;2023-03-30T02:47:47;68.23;45.15;80.90;;
18377;Laerm;9315;52.624;13.544;2023-03-30T02:56:26;68.30;43.59;79.16;;
18377;Laerm;9315;52.624;13.544;2023-03-30T02:59:10;65.97;45.17;77.81;;
18377;Laerm;9315;52.624;13.544;2023-03-30T03:02:11;69.18;44.24;81.48;;
18377;Laerm;9315;52.624;13.544;2023-03-30T03:04:41;68.11;45.46;82.51;;
18377;Laerm;9315;52.624;13.544;2023-03-30T03:07:11;70.29;46.00;83.34;;
18377;Laerm;9315;52.624;13.544;2023-03-30T03:09:39;67.53;47.81;79.53;;
18377;Laerm;9315;52.624;13.544;2023-03-30T03:12:07;69.19;47.14;78.89;;
18377;Laerm;9315;52.624;13.544;2023-03-30T03:14:34;68.38;46.19;79.56;;
18377;Laerm;9315;52.624;13.544;2023-03-30T03:17:02;73.17;48.23;86.31;;
18377;Laerm;9315;52.624;13.544;2023-03-30T03:19:31;70.98;47.71;80.17;;
18377;Laerm;9315;52.624;13.544;2023-03-30T03:22:01;70.85;48.15;78.58;;
18377;Laerm;9315;52.624;13.544;2023-03-30T03:24:29;71.00;49.51;82.42;;
18377;Laerm;9315;52.624;13.544;2023-03-30T03:26:56;70.66;48.39;81.72;;
18377;Laerm;9315;52.624;13.544;2023-03-30T03:29:23;66.45;47.93;77.56;;
18377;Laerm;9315;52.624;13.544;2023-03-30T03:31:50;69.00;47.98;80.22;;
18377;Laerm;9315;52.624;13.544;2023-03-30T03:34:17;71.23;49.08;84.52;;
18377;Laerm;9315;52.624;13.544;2023-03-30T03:36:46;69.95;49.07;83.99;;
18377;Laerm;9315;52.624;13.544;2023-03-30T03:39:13;71.91;50.12;82.77;;
18377;Laerm;9315;52.624;13.544;2023-03-30T03:41:40;71.37;51.10;79.53;;
18377;Laerm;9315;52.624;13.544;2023-03-30T03:44:08;70.11;48.94;77.29;;
18377;Laerm;9315;52.624;13.544;2023-03-30T03:46:35;68.82;49.15;80.15;;
18377;Laerm;9315;52.624;13.544;2023-03-30T03:49:03;70.66;50.98;82.67;;
18377;Laerm;9315;52.624;13.544;2023-03-30T03:51:33;69.42;49.33;79.88;;
18377;Laerm;9315;52.624;13.544;2023-03-30T03:54:01;71.60;50.36;81.86;;
18377;Laerm;9315;52.624;13.544;2023-03-30T03:56:28;67.36;49.96;77.82;;
18377;Laerm;9315;52.624;13.544;2023-03-30T03:58:56;69.56;51.48;79.83;;
18377;Laerm;9315;52.624;13.544;2023-03-30T04:01:23;71.22;52.90;79.01;;
18377;Laerm;9315;52.624;13.544;2023-03-30T04:03:50;70.91;49.84;82.70;;
18377;Laerm;9315;52.624;13.544;2023-03-30T04:06:17;70.28;49.73;83.48;;
18377;Laerm;9315;52.624;13.544;2023-03-30T04:08:44;68.98;49.84;82.76;;
18377;Laerm;9315;52.624;13.544;2023-03-30T04:11:12;70.23;50.51;79.68;;
18377;Laerm;9315;52.624;13.544;2023-03-30T04:13:39;74.53;52.99;84.19;;
18377;Laerm;9315;52.624;13.544;2023-03-30T04:16:07;68.83;50.73;79.36;;
18377;Laerm;9315;52.624;13.544;2023-03-30T04:18:35;72.07;50.26;81.83;;
18377;Laerm;9315;52.624;13.544;2023-03-30T04:21:05;70.55;51.07;77.79;;
18377;Laerm;9315;52.624;13.544;2023-03-30T04:23:36;73.09;51.02;85.53;;
18377;Laerm;9315;52.624;13.544;2023-03-30T04:26:06;70.97;52.18;80.19;;
18377;Laerm;9315;52.624;13.544;2023-03-30T04:28:35;69.25;52.19;78.93;;
18377;Laerm;9315;52.624;13.544;2023-03-30T04:31:07;72.44;54.85;86.87;;
18377;Laerm;9315;52.624;13.544;2023-03-30T04:33:40;71.17;54.58;84.15;;
18377;Laerm;9315;52.624;13.544;2023-03-30T04:36:19;73.66;57.50;84.13;;
18377;Laerm;9315;52.624;13.544;2023-03-30T04:38:47;72.14;59.51;85.26;;
18377;Laerm;9315;52.624;13.544;2023-03-30T04:41:28;79.95;55.93;102.12;;
18377;Laerm;9315;52.624;13.544;2023-03-30T04:44:05;81.65;53.10;102.59;;
18377;Laerm;9315;52.624;13.544;2023-03-30T04:46:33;72.22;55.73;87.83;;
18377;Laerm;9315;52.624;13.544;2023-03-30T04:49:01;69.92;52.71;81.71;;
18377;Laerm;9315;52.624;13.544;2023-03-30T04:51:28;71.62;51.86;84.34;;
18377;Laerm;9315;52.624;13.544;2023-03-30T04:53:55;73.35;53.44;89.26;;
18377;Laerm;9315;52.624;13.544;2023-03-30T04:56:23;70.08;51.96;82.69;;
18377;Laerm;9315;52.624;13.544;2023-03-30T04:58:50;70.27;51.80;82.04;;
18377;Laerm;9315;52.624;13.544;2023-03-30T05:01:17;71.42;52.33;79.43;;
18377;Laerm;9315;52.624;13.544;2023-03-30T05:03:45;71.04;52.14;81.74;;
18377;Laerm;9315;52.624;13.544;2023-03-30T05:06:12;70.48;55.69;78.80;;
18377;Laerm;9315;52.624;13.544;2023-03-30T05:08:40;72.90;57.14;86.62;;
18377;Laerm;9315;52.624;13.544;2023-03-30T05:11:08;72.74;54.34;82.77;;
18377;Laerm;9315;52.624;13.544;2023-03-30T05:13:36;73.53;57.14;82.99;;
18377;Laerm;9315;52.624;13.544;2023-03-30T05:16:03;70.49;52.76;79.99;;
18377;Laerm;9315;52.624;13.544;2023-03-30T05:18:30;70.24;56.68;78.94;;
18377;Laerm;9315;52.624;13.544;2023-03-30T05:20:58;71.73;55.34;80.54;;
18377;Laerm;9315;52.624;13.544;2023-03-30T05:23:26;70.05;53.80;77.47;;
18377;Laerm;9315;52.624;13.544;2023-03-30T05:25:53;72.18;55.55;80.36;;
18377;Laerm;9315;52.624;13.544;2023-03-30T05:28:22;71.23;52.79;78.24;;
18377;Laerm;9315;52.624;13.544;2023-03-30T05:30:53;71.98;52.38;82.34;;
18377;Laerm;9315;52.624;13.544;2023-03-30T05:33:21;69.74;52.56;79.00;;
18377;Laerm;9315;52.624;13.544;2023-03-30T05:35:49;71.17;54.48;82.65;;
18377;Laerm;9315;52.624;13.544;2023-03-30T05:38:17;71.36;52.40;82.51;;
18377;Laerm;9315;52.624;13.544;2023-03-30T05:40:44;69.21;50.79;78.64;;
18377;Laerm;9315;52.624;13.544;2023-03-30T05:43:12;71.00;51.65;80.18;;
18377;Laerm;9315;52.624;13.544;2023-03-30T05:45:39;71.03;53.09;82.74;;
18377;Laerm;9315;52.624;13.544;2023-03-30T05:48:10;72.18;55.89;82.35;;
18377;Laerm;9315;52.624;13.544;2023-03-30T05:52:00;70.80;54.08;79.56;;
18377;Laerm;9315;52.624;13.544;2023-03-30T05:54:24;70.23;54.60;83.22;;
18377;Laerm;9315;52.624;13.544;2023-03-30T05:56:53;69.85;53.42;77.09;;
18377;Laerm;9315;52.624;13.544;2023-03-30T05:59:20;70.79;52.90;82.19;;
18377;Laerm;9315;52.624;13.544;2023-03-30T06:01:47;70.58;50.58;78.71;;
18377;Laerm;9315;52.624;13.544;2023-03-30T06:04:15;69.42;52.06;81.07;;
18377;Laerm;9315;52.624;13.544;2023-03-30T06:06:42;71.33;53.39;81.28;;
18377;Laerm;9315;52.624;13.544;2023-03-30T06:09:10;69.44;51.34;77.14;;
18377;Laerm;9315;52.624;13.544;2023-03-30T06:11:37;71.05;51.33;82.78;;
18377;Laerm;9315;52.624;13.544;2023-03-30T06:14:07;71.04;54.29;79.31;;
18377;Laerm;9315;52.624;13.544;2023-03-30T06:16:35;68.39;52.87;79.28;;
18377;Laerm;9315;52.624;13.544;2023-03-30T06:19:03;70.51;53.77;78.44;;
18377;Laerm;9315;52.624;13.544;2023-03-30T06:21:32;72.26;53.80;78.35;;
18377;Laerm;9315;52.624;13.544;2023-03-30T06:24:00;71.40;55.17;83.85;;
18377;Laerm;9315;52.624;13.544;2023-03-30T06:26:27;70.46;52.59;82.91;;
18377;Laerm;9315;52.624;13.544;2023-03-30T06:28:55;70.52;53.20;80.50;;
18377;Laerm;9315;52.624;13.544;2023-03-30T06:31:22;69.97;51.18;78.88;;
18377;Laerm;9315;52.624;13.544;2023-03-30T06:33:50;70.54;53.09;83.60;;
18377;Laerm;9315;52.624;13.544;2023-03-30T06:36:17;69.37;53.41;81.01;;
18377;Laerm;9315;52.624;13.544;2023-03-30T06:38:45;68.54;50.56;77.20;;
18377;Laerm;9315;52.624;13.544;2023-03-30T06:41:12;67.19;50.35;77.42;;
18377;Laerm;9315;52.624;13.544;2023-03-30T06:43:40;69.45;50.49;78.19;;
18377;Laerm;9315;52.624;13.544;2023-03-30T06:46:08;68.42;51.75;77.95;;
18377;Laerm;9315;52.624;13.544;2023-03-30T06:48:38;70.42;51.59;79.40;;
18377;Laerm;9315;52.624;13.544;2023-03-30T06:51:05;69.54;52.10;79.85;;
18377;Laerm;9315;52.624;13.544;2023-03-30T06:53:33;70.98;50.84;82.12;;
18377;Laerm;9315;52.624;13.544;2023-03-30T06:56:00;68.80;49.95;76.89;;
18377;Laerm;9315;52.624;13.544;2023-03-30T06:58:29;67.80;51.66;80.76;;
18377;Laerm;9315;52.624;13.544;2023-03-30T07:00:57;71.51;52.50;83.74;;
18377;Laerm;9315;52.624;13.544;2023-03-30T07:03:24;68.19;48.27;78.61;;
18377;Laerm;9315;52.624;13.544;2023-03-30T07:05:52;69.64;53.39;79.54;;
18377;Laerm;9315;52.624;13.544;2023-03-30T07:08:22;68.12;51.53;81.19;;
18377;Laerm;9315;52.624;13.544;2023-03-30T07:10:50;69.98;54.80;79.38;;
18377;Laerm;9315;52.624;13.544;2023-03-30T07:13:17;68.69;49.77;77.58;;
18377;Laerm;9315;52.624;13.544;2023-03-30T07:15:45;68.95;51.67;78.35;;
18377;Laerm;9315;52.624;13.544;2023-03-30T07:18:13;67.62;53.29;76.12;;
18377;Laerm;9315;52.624;13.544;2023-03-30T07:20:42;69.15;51.25;77.00;;
18377;Laerm;9315;52.624;13.544;2023-03-30T07:23:10;68.62;51.95;78.34;;
18377;Laerm;9315;52.624;13.544;2023-03-30T07:25:39;69.10;52.45;80.75;;
18377;Laerm;9315;52.624;13.544;2023-03-30T07:28:07;70.37;51.79;83.92;;
18377;Laerm;9315;52.624;13.544;2023-03-30T07:30:35;69.22;52.16;79.26;;
18377;Laerm;9315;52.624;13.544;2023-03-30T07:33:03;68.67;49.84;77.10;;
18377;Laerm;9315;52.624;13.544;2023-03-30T07:35:30;69.48;48.77;78.37;;
18377;Laerm;9315;52.624;13.544;2023-03-30T07:37:58;67.61;52.58;79.66;;
18377;Laerm;9315;52.624;13.544;2023-03-30T07:40:30;68.39;49.45;77.67;;
18377;Laerm;9315;52.624;13.544;2023-03-30T07:42:57;68.77;49.41;79.56;;
18377;Laerm;9315;52.624;13.544;2023-03-30T07:45:25;70.06;51.99;81.92;;
18377;Laerm;9315;52.624;13.544;2023-03-30T07:47:53;70.48;48.33;84.12;;
18377;Laerm;9315;52.624;13.544;2023-03-30T07:50:20;69.26;53.04;77.97;;
18377;Laerm;9315;52.624;13.544;2023-03-30T07:52:52;68.89;48.56;80.17;;
18377;Laerm;9315;52.624;13.544;2023-03-30T07:55:20;67.09;46.68;77.01;;
18377;Laerm;9315;52.624;13.544;2023-03-30T07:57:47;69.18;48.76;80.75;;
18377;Laerm;9315;52.624;13.544;2023-03-30T08:00:15;68.61;49.90;77.19;;
18377;Laerm;9315;52.624;13.544;2023-03-30T08:02:43;68.75;47.23;78.18;;
18377;Laerm;9315;52.624;13.544;2023-03-30T08:05:11;67.82;48.37;79.97;;
18377;Laerm;9315;52.624;13.544;2023-03-30T08:07:38;70.20;52.11;78.32;;
18377;Laerm;9315;52.624;13.544;2023-03-30T08:10:07;70.57;47.94;83.88;;
18377;Laerm;9315;52.624;13.544;2023-03-30T08:12:34;68.73;49.32;83.04;;
18377;Laerm;9315;52.624;13.544;2023-03-30T08:15:03;68.85;51.52;77.73;;
18377;Laerm;9315;52.624;13.544;2023-03-30T08:17:30;71.04;55.22;80.21;;
18377;Laerm;9315;52.624;13.544;2023-03-30T08:19:58;67.76;45.94;77.46;;
18377;Laerm;9315;52.624;13.544;2023-03-30T08:22:25;68.97;50.19;81.62;;
18377;Laerm;9315;52.624;13.544;2023-03-30T08:24:52;69.18;49.94;78.60;;
18377;Laerm;9315;52.624;13.544;2023-03-30T08:27:19;71.27;53.74;84.15;;
18377;Laerm;9315;52.624;13.544;2023-03-30T08:29:47;68.94;47.62;80.02;;
18377;Laerm;9315;52.624;13.544;2023-03-30T08:32:14;70.27;50.31;80.75;;
18377;Laerm;9315;52.624;13.544;2023-03-30T08:34:42;69.07;50.36;78.35;;
18377;Laerm;9315;52.624;13.544;2023-03-30T08:37:10;66.32;48.88;75.90;;
18377;Laerm;9315;52.624;13.544;2023-03-30T08:39:38;69.06;49.04;75.95;;
18377;Laerm;9315;52.624;13.544;2023-03-30T08:45:11;71.28;49.02;82.78;;
18377;Laerm;9315;52.624;13.544;2023-03-30T08:47:43;68.93;46.77;81.69;;
18377;Laerm;9315;52.624;13.544;2023-03-30T08:52:56;70.82;48.39;80.76;;
18377;Laerm;9315;52.624;13.544;2023-03-30T08:58:17;69.30;48.38;81.78;;
18377;Laerm;9315;52.624;13.544;2023-03-30T09:10:25;66.57;46.50;78.33;;
18377;Laerm;9315;52.624;13.544;2023-03-30T09:13:00;69.06;46.82;79.51;;
18377;Laerm;9315;52.624;13.544;2023-03-30T09:16:11;68.11;48.45;77.76;;
18377;Laerm;9315;52.624;13.544;2023-03-30T09:18:45;68.40;49.14;78.30;;
18377;Laerm;9315;52.624;13.544;2023-03-30T09:21:13;68.13;49.31;76.73;;
18377;Laerm;9315;52.624;13.544;2023-03-30T09:23:41;69.34;49.23;76.64;;
18377;Laerm;9315;52.624;13.544;2023-03-30T09:26:35;68.21;47.41;83.36;;
18377;Laerm;9315;52.624;13.544;2023-03-30T09:29:25;70.01;47.10;91.74;;
18377;Laerm;9315;52.624;13.544;2023-03-30T09:32:30;69.47;50.91;80.95;;
18377;Laerm;9315;52.624;13.544;2023-03-30T09:35:13;68.92;50.70;80.92;;
18377;Laerm;9315;52.624;13.544;2023-03-30T09:37:41;70.07;49.51;84.78;;
18377;Laerm;9315;52.624;13.544;2023-03-30T09:41:05;68.29;49.16;84.13;;
18377;Laerm;9315;52.624;13.544;2023-03-30T09:43:43;68.43;52.84;77.87;;
18377;Laerm;9315;52.624;13.544;2023-03-30T09:46:14;69.27;47.26;79.48;;
18377;Laerm;9315;52.624;13.544;2023-03-30T09:48:47;68.05;47.50;78.17;;
18377;Laerm;9315;52.624;13.544;2023-03-30T09:51:27;67.59;48.30;77.77;;
18377;Laerm;9315;52.624;13.544;2023-03-30T09:54:03;69.03;47.52;77.50;;
18377;Laerm;9315;52.624;13.544;2023-03-30T09:56:41;68.72;50.72;80.44;;
18377;Laerm;9315;52.624;13.544;2023-03-30T09:59:35;67.98;47.88;76.23;;
18377;Laerm;9315;52.624;13.544;2023-03-30T10:05:00;68.13;48.25;81.73;;
18377;Laerm;9315;52.624;13.544;2023-03-30T10:13:16;68.16;48.60;79.58;;
18377;Laerm;9315;52.624;13.544;2023-03-30T10:15:46;68.69;48.16;77.83;;
18377;Laerm;9315;52.624;13.544;2023-03-30T10:18:27;68.24;49.89;79.29;;
18377;Laerm;9315;52.624;13.544;2023-03-30T10:23:45;69.65;49.20;78.07;;
18377;Laerm;9315;52.624;13.544;2023-03-30T10:26:17;69.87;50.49;84.63;;
18377;Laerm;9315;52.624;13.544;2023-03-30T10:29:06;70.89;52.14;80.18;;
18377;Laerm;9315;52.624;13.544;2023-03-30T10:31:41;69.02;52.03;80.47;;
18377;Laerm;9315;52.624;13.544;2023-03-30T10:37:17;68.68;51.89;79.72;;
18377;Laerm;9315;52.624;13.544;2023-03-30T10:39:50;69.92;51.12;79.14;;
18377;Laerm;9315;52.624;13.544;2023-03-30T10:42:23;69.66;51.97;82.54;;
18377;Laerm;9315;52.624;13.544;2023-03-30T10:45:03;68.03;49.18;76.22;;
18377;Laerm;9315;52.624;13.544;2023-03-30T10:48:40;68.46;47.76;79.44;;
18377;Laerm;9315;52.624;13.544;2023-03-30T10:54:17;69.12;49.81;78.48;;
18377;Laerm;9315;52.624;13.544;2023-03-30T10:57:05;70.00;47.86;80.51;;
18377;Laerm;9315;52.624;13.544;2023-03-30T11:03:25;68.76;48.78;80.26;;
18377;Laerm;9315;52.624;13.544;2023-03-30T11:06:25;69.82;49.31;79.18;;
18377;Laerm;9315;52.624;13.544;2023-03-30T11:08:55;68.97;48.50;81.81;;
18377;Laerm;9315;52.624;13.544;2023-03-30T11:12:18;69.09;50.38;77.32;;
18377;Laerm;9315;52.624;13.544;2023-03-30T11:15:03;69.86;49.87;84.38;;
18377;Laerm;9315;52.624;13.544;2023-03-30T11:17:43;71.26;49.13;85.54;;
18377;Laerm;9315;52.624;13.544;2023-03-30T11:20:27;68.49;51.02;79.75;;
18377;Laerm;9315;52.624;13.544;2023-03-30T11:26:28;70.61;50.50;82.51;;
18377;Laerm;9315;52.624;13.544;2023-03-30T11:29:50;68.30;50.05;80.43;;
18377;Laerm;9315;52.624;13.544;2023-03-30T11:35:52;69.52;49.45;83.16;;
18377;Laerm;9315;52.624;13.544;2023-03-30T11:38:42;73.01;50.33;95.72;;
18377;Laerm;9315;52.624;13.544;2023-03-30T11:41:18;68.36;48.84;80.09;;
18377;Laerm;9315;52.624;13.544;2023-03-30T11:43:58;68.79;52.35;77.73;;
18377;Laerm;9315;52.624;13.544;2023-03-30T11:52:50;69.50;48.90;86.67;;
18377;Laerm;9315;52.624;13.544;2023-03-30T11:58:54;69.86;52.42;77.54;;
18377;Laerm;9315;52.624;13.544;2023-03-30T12:05:32;70.18;57.09;83.49;;
18377;Laerm;9315;52.624;13.544;2023-03-30T12:10:44;69.16;58.97;79.80;;
18377;Laerm;9315;52.624;13.544;2023-03-30T12:13:24;71.78;61.25;95.63;;
18377;Laerm;9315;52.624;13.544;2023-03-30T12:17:00;68.79;57.67;81.25;;
18377;Laerm;9315;52.624;13.544;2023-03-30T12:19:28;67.89;55.43;78.60;;
18377;Laerm;9315;52.624;13.544;2023-03-30T12:25:52;68.39;56.34;78.34;;
18377;Laerm;9315;52.624;13.544;2023-03-30T12:28:30;67.95;53.75;79.81;;
18377;Laerm;9315;52.624;13.544;2023-03-30T12:32:05;69.25;56.38;85.30;;
18377;Laerm;9315;52.624;13.544;2023-03-30T12:34:39;68.31;58.94;83.17;;
18377;Laerm;9315;52.624;13.544;2023-03-30T12:37:35;68.79;55.04;78.15;;
18377;Laerm;9315;52.624;13.544;2023-03-30T12:40:20;69.05;55.87;78.46;;
18377;Laerm;9315;52.624;13.544;2023-03-30T12:43:20;68.73;50.93;87.40;;
18377;Laerm;9315;52.624;13.544;2023-03-30T12:46:19;69.86;52.59;81.16;;
18377;Laerm;9315;52.624;13.544;2023-03-30T12:52:33;68.85;48.90;77.49;;
18377;Laerm;9315;52.624;13.544;2023-03-30T13:04:05;68.71;51.35;76.58;;
18377;Laerm;9315;52.624;13.544;2023-03-30T13:07:00;70.28;51.01;80.91;;
18377;Laerm;9315;52.624;13.544;2023-03-30T13:25:00;69.42;48.88;77.99;;
18377;Laerm;9315;52.624;13.544;2023-03-30T13:27:35;69.31;51.44;77.19;;
18377;Laerm;9315;52.624;13.544;2023-03-30T13:30:12;68.31;49.43;76.31;;
18377;Laerm;9315;52.624;13.544;2023-03-30T13:33:18;67.82;50.47;83.91;;
18377;Laerm;9315;52.624;13.544;2023-03-30T13:36:23;69.85;48.23;81.95;;
18377;Laerm;9315;52.624;13.544;2023-03-30T13:39:02;69.56;50.55;80.33;;
18377;Laerm;9315;52.624;13.544;2023-03-30T13:45:03;69.82;50.30;80.80;;
18377;Laerm;9315;52.624;13.544;2023-03-30T13:50:55;69.69;50.72;77.26;;
18377;Laerm;9315;52.624;13.544;2023-03-30T13:53:53;75.11;58.19;96.76;;
18377;Laerm;9315;52.624;13.544;2023-03-30T13:56:35;82.13;65.73;104.17;;
18377;Laerm;9315;52.624;13.544;2023-03-30T13:59:30;81.85;57.09;104.38;;
18377;Laerm;9315;52.624;13.544;2023-03-30T14:02:00;80.02;63.65;96.24;;
18377;Laerm;9315;52.624;13.544;2023-03-30T14:04:32;77.40;59.43;97.24;;
18377;Laerm;9315;52.624;13.544;2023-03-30T14:07:20;79.48;59.40;87.81;;
18377;Laerm;9315;52.624;13.544;2023-03-30T14:12:42;76.52;58.83;85.75;;
18377;Laerm;9315;52.624;13.544;2023-03-30T14:15:34;78.39;54.97;88.63;;
18377;Laerm;9315;52.624;13.544;2023-03-30T14:18:03;77.01;56.07;85.41;;
18377;Laerm;9315;52.624;13.544;2023-03-30T14:20:55;85.69;59.21;108.47;;
18377;Laerm;9315;52.624;13.544;2023-03-30T14:23:36;77.77;53.35;87.59;;
18377;Laerm;9315;52.624;13.544;2023-03-30T14:26:26;77.90;56.37;85.54;;
18377;Laerm;9315;52.624;13.544;2023-03-30T14:29:02;75.99;56.91;84.80;;
18377;Laerm;9315;52.624;13.544;2023-03-30T14:31:41;75.83;54.28;83.11;;
18377;Laerm;9315;52.624;13.544;2023-03-30T14:34:32;75.94;52.28;83.47;;
18377;Laerm;9315;52.624;13.544;2023-03-30T14:37:10;76.26;53.24;85.05;;
18377;Laerm;9315;52.624;13.544;2023-03-30T14:39:51;77.40;56.93;87.35;;
18377;Laerm;9315;52.624;13.544;2023-03-30T14:42:33;77.20;54.03;85.79;;
18377;Laerm;9315;52.624;13.544;2023-03-30T14:45:02;74.89;52.44;83.99;;
18377;Laerm;9315;52.624;13.544;2023-03-30T14:47:32;76.32;54.41;85.80;;
18377;Laerm;9315;52.624;13.544;2023-03-30T14:50:04;75.40;51.80;83.53;;
18377;Laerm;9315;52.624;13.544;2023-03-30T14:52:41;75.02;53.22;83.28;;
18377;Laerm;9315;52.624;13.544;2023-03-30T14:55:22;75.87;57.98;84.07;;
18377;Laerm;9315;52.624;13.544;2023-03-30T14:57:50;74.94;53.61;85.01;;
18377;Laerm;9315;52.624;13.544;2023-03-30T15:00:21;75.54;52.04;83.75;;
18377;Laerm;9315;52.624;13.544;2023-03-30T15:03:05;73.85;60.42;80.18;;
18377;Laerm;9315;52.624;13.544;2023-03-30T15:05:48;74.96;56.41;85.45;;
18377;Laerm;9315;52.624;13.544;2023-03-30T15:08:29;75.46;57.67;85.00;;
18377;Laerm;9315;52.624;13.544;2023-03-30T15:11:10;74.02;52.69;84.56;;
18377;Laerm;9315;52.624;13.544;2023-03-30T15:13:59;74.90;55.01;82.64;;
18377;Laerm;9315;52.624;13.544;2023-03-30T15:16:32;73.76;52.53;83.46;;
18377;Laerm;9315;52.624;13.544;2023-03-30T15:19:11;71.66;52.60;82.36;;
18377;Laerm;9315;52.624;13.544;2023-03-30T15:21:40;74.60;52.94;86.54;;
18377;Laerm;9315;52.624;13.544;2023-03-30T15:24:16;74.31;53.34;82.16;;
18377;Laerm;9315;52.624;13.544;2023-03-30T15:26:47;72.73;50.72;82.33;;
18377;Laerm;9315;52.624;13.544;2023-03-30T15:29:19;74.13;50.39;83.33;;
18377;Laerm;9315;52.624;13.544;2023-03-30T15:32:15;74.37;51.49;90.81;;
18377;Laerm;9315;52.624;13.544;2023-03-30T15:37:28;74.03;53.62;81.08;;
18377;Laerm;9315;52.624;13.544;2023-03-30T15:39:57;74.53;53.54;84.45;;
18377;Laerm;9315;52.624;13.544;2023-03-30T15:42:31;72.43;51.26;80.38;;
18377;Laerm;9315;52.624;13.544;2023-03-30T15:45:10;73.61;50.09;83.42;;
18377;Laerm;9315;52.624;13.544;2023-03-30T15:47:37;86.42;54.86;107.24;;
18377;Laerm;9315;52.624;13.544;2023-03-30T15:50:11;74.42;54.32;85.85;;
18377;Laerm;9315;52.624;13.544;2023-03-30T15:52:43;72.55;50.71;85.61;;
18377;Laerm;9315;52.624;13.544;2023-03-30T15:55:24;73.78;54.51;83.36;;
18377;Laerm;9315;52.624;13.544;2023-03-30T15:57:52;73.10;52.97;84.18;;
18377;Laerm;9315;52.624;13.544;2023-03-30T16:00:23;73.15;53.57;84.05;;
18377;Laerm;9315;52.624;13.544;2023-03-30T16:02:58;72.19;53.38;81.86;;
18377;Laerm;9315;52.624;13.544;2023-03-30T16:05:35;73.04;52.34;82.43;;
18377;Laerm;9315;52.624;13.544;2023-03-30T16:08:02;72.56;52.05;84.50;;
18377;Laerm;9315;52.624;13.544;2023-03-30T16:10:32;70.62;51.32;79.16;;
18377;Laerm;9315;52.624;13.544;2023-03-30T16:13:00;70.31;51.69;79.90;;
18377;Laerm;9315;52.624;13.544;2023-03-30T16:15:32;72.66;51.28;82.61;;
18377;Laerm;9315;52.624;13.544;2023-03-30T16:18:00;71.51;51.68;80.47;;
18377;Laerm;9315;52.624;13.544;2023-03-30T16:20:31;71.80;51.17;79.37;;
18377;Laerm;9315;52.624;13.544;2023-03-30T16:22:59;70.94;51.34;85.51;;
18377;Laerm;9315;52.624;13.544;2023-03-30T16:25:27;68.73;48.50;81.49;;
18377;Laerm;9315;52.624;13.544;2023-03-30T16:27:57;69.88;47.83;79.86;;
18377;Laerm;9315;52.624;13.544;2023-03-30T16:30:32;69.56;49.48;79.65;;
18377;Laerm;9315;52.624;13.544;2023-03-30T16:33:02;69.02;48.68;78.03;;
18377;Laerm;9315;52.624;13.544;2023-03-30T16:35:30;70.64;50.20;79.95;;
18377;Laerm;9315;52.624;13.544;2023-03-30T16:37:58;70.22;49.18;80.00;;
18377;Laerm;9315;52.624;13.544;2023-03-30T16:40:42;70.20;48.94;80.91;;